sensor_id;sensor_type;location;lat;lon;timestamp;P1;durP1;ratioP1;P2;durP2;ratioP2
20976;SDS011;10647;51.016;3.720;2022-12-18T00:01:34;145.63;;;48.87;;
20976;SDS011;10647;51.016;3.720;2022-12-18T00:04:04;142.63;;;49.27;;
20976;SDS011;10647;51.016;3.720;2022-12-18T00:06:34;144.50;;;50.13;;
20976;SDS011;10647;51.016;3.720;2022-12-18T00:09:05;139.37;;;48.73;;
20976;SDS011;10647;51.016;3.720;2022-12-18T00:11:38;140.57;;;48.63;;
20976;SDS011;10647;51.016;3.720;2022-12-18T00:14:06;137.37;;;46.97;;
20976;SDS011;10647;51.016;3.720;2022-12-18T00:16:34;147.13;;;49.13;;
20976;SDS011;10647;51.016;3.720;2022-12-18T00:19:02;139.87;;;49.00;;
20976;SDS011;10647;51.016;3.720;2022-12-18T00:21:32;140.13;;;47.73;;
20976;SDS011;10647;51.016;3.720;2022-12-18T00:24:00;127.47;;;45.13;;
20976;SDS011;10647;51.016;3.720;2022-12-18T00:26:28;132.73;;;47.13;;
20976;SDS011;10647;51.016;3.720;2022-12-18T00:28:58;131.97;;;46.33;;
20976;SDS011;10647;51.016;3.720;2022-12-18T00:31:27;145.60;;;46.93;;
20976;SDS011;10647;51.016;3.720;2022-12-18T00:33:55;123.07;;;45.83;;
20976;SDS011;10647;51.016;3.720;2022-12-18T00:36:28;125.07;;;44.53;;
20976;SDS011;10647;51.016;3.720;2022-12-18T00:39:02;141.10;;;47.33;;
20976;SDS011;10647;51.016;3.720;2022-12-18T00:41:49;144.10;;;49.47;;
20976;SDS011;10647;51.016;3.720;2022-12-18T00:44:27;152.20;;;52.20;;
20976;SDS011;10647;51.016;3.720;2022-12-18T00:46:55;143.90;;;50.20;;
20976;SDS011;10647;51.016;3.720;2022-12-18T00:49:24;135.70;;;49.67;;
20976;SDS011;10647;51.016;3.720;2022-12-18T00:51:51;148.53;;;49.33;;
20976;SDS011;10647;51.016;3.720;2022-12-18T00:54:25;139.20;;;49.77;;
20976;SDS011;10647;51.016;3.720;2022-12-18T00:56:56;146.40;;;50.57;;
20976;SDS011;10647;51.016;3.720;2022-12-18T00:59:23;136.07;;;48.53;;
20976;SDS011;10647;51.016;3.720;2022-12-18T01:01:51;153.83;;;50.60;;
20976;SDS011;10647;51.016;3.720;2022-12-18T01:04:24;139.93;;;49.67;;
20976;SDS011;10647;51.016;3.720;2022-12-18T01:06:55;140.10;;;48.07;;
20976;SDS011;10647;51.016;3.720;2022-12-18T01:14:56;136.40;;;46.93;;
20976;SDS011;10647;51.016;3.720;2022-12-18T01:17:24;138.87;;;47.20;;
20976;SDS011;10647;51.016;3.720;2022-12-18T01:19:51;130.83;;;46.40;;
20976;SDS011;10647;51.016;3.720;2022-12-18T01:22:19;130.77;;;47.50;;
20976;SDS011;10647;51.016;3.720;2022-12-18T01:24:46;131.03;;;45.20;;
20976;SDS011;10647;51.016;3.720;2022-12-18T01:27:14;129.77;;;43.60;;
20976;SDS011;10647;51.016;3.720;2022-12-18T01:29:42;138.63;;;46.20;;
20976;SDS011;10647;51.016;3.720;2022-12-18T01:32:10;126.00;;;44.30;;
20976;SDS011;10647;51.016;3.720;2022-12-18T01:34:38;125.87;;;43.50;;
20976;SDS011;10647;51.016;3.720;2022-12-18T01:39:52;122.13;;;44.33;;
20976;SDS011;10647;51.016;3.720;2022-12-18T01:42:20;126.00;;;43.63;;
20976;SDS011;10647;51.016;3.720;2022-12-18T01:48:03;122.97;;;42.43;;
20976;SDS011;10647;51.016;3.720;2022-12-18T01:50:38;133.07;;;43.27;;
20976;SDS011;10647;51.016;3.720;2022-12-18T01:53:25;123.03;;;41.03;;
20976;SDS011;10647;51.016;3.720;2022-12-18T01:55:55;115.77;;;41.17;;
20976;SDS011;10647;51.016;3.720;2022-12-18T01:58:33;121.40;;;41.50;;
20976;SDS011;10647;51.016;3.720;2022-12-18T02:01:03;130.37;;;41.07;;
20976;SDS011;10647;51.016;3.720;2022-12-18T02:03:31;111.13;;;38.10;;
20976;SDS011;10647;51.016;3.720;2022-12-18T02:06:25;118.40;;;39.80;;
20976;SDS011;10647;51.016;3.720;2022-12-18T02:17:30;111.10;;;37.67;;
20976;SDS011;10647;51.016;3.720;2022-12-18T02:28:30;122.77;;;36.53;;
20976;SDS011;10647;51.016;3.720;2022-12-18T02:31:01;121.67;;;37.53;;
20976;SDS011;10647;51.016;3.720;2022-12-18T02:33:50;105.83;;;35.20;;
20976;SDS011;10647;51.016;3.720;2022-12-18T02:36:23;103.33;;;34.60;;
20976;SDS011;10647;51.016;3.720;2022-12-18T02:38:58;113.93;;;37.17;;
20976;SDS011;10647;51.016;3.720;2022-12-18T02:41:46;111.50;;;35.77;;
20976;SDS011;10647;51.016;3.720;2022-12-18T02:44:17;114.57;;;35.33;;
20976;SDS011;10647;51.016;3.720;2022-12-18T02:46:46;108.67;;;34.60;;
20976;SDS011;10647;51.016;3.720;2022-12-18T02:52:16;102.90;;;33.60;;
20976;SDS011;10647;51.016;3.720;2022-12-18T02:54:57;105.60;;;33.03;;
20976;SDS011;10647;51.016;3.720;2022-12-18T02:57:45;92.80;;;32.27;;
20976;SDS011;10647;51.016;3.720;2022-12-18T03:00:30;96.53;;;32.23;;
20976;SDS011;10647;51.016;3.720;2022-12-18T03:05:48;99.13;;;32.57;;
20976;SDS011;10647;51.016;3.720;2022-12-18T03:08:42;97.50;;;32.73;;
20976;SDS011;10647;51.016;3.720;2022-12-18T03:11:12;97.33;;;33.40;;
20976;SDS011;10647;51.016;3.720;2022-12-18T03:13:42;98.17;;;31.70;;
20976;SDS011;10647;51.016;3.720;2022-12-18T03:16:15;89.57;;;30.63;;
20976;SDS011;10647;51.016;3.720;2022-12-18T03:19:05;105.03;;;31.73;;
20976;SDS011;10647;51.016;3.720;2022-12-18T03:21:36;97.80;;;31.40;;
20976;SDS011;10647;51.016;3.720;2022-12-18T03:24:09;97.37;;;28.87;;
20976;SDS011;10647;51.016;3.720;2022-12-18T03:26:40;89.70;;;29.97;;
20976;SDS011;10647;51.016;3.720;2022-12-18T03:29:12;90.17;;;28.20;;
20976;SDS011;10647;51.016;3.720;2022-12-18T03:31:55;82.43;;;26.73;;
20976;SDS011;10647;51.016;3.720;2022-12-18T03:34:47;83.27;;;26.70;;
20976;SDS011;10647;51.016;3.720;2022-12-18T03:37:17;76.97;;;26.07;;
20976;SDS011;10647;51.016;3.720;2022-12-18T03:39:45;57.80;;;21.93;;
20976;SDS011;10647;51.016;3.720;2022-12-18T03:45:08;76.13;;;25.10;;
20976;SDS011;10647;51.016;3.720;2022-12-18T03:48:12;78.40;;;24.80;;
20976;SDS011;10647;51.016;3.720;2022-12-18T03:50:46;72.20;;;22.97;;
20976;SDS011;10647;51.016;3.720;2022-12-18T03:53:27;73.97;;;24.83;;
20976;SDS011;10647;51.016;3.720;2022-12-18T03:56:10;79.63;;;26.00;;
20976;SDS011;10647;51.016;3.720;2022-12-18T03:58:40;74.90;;;24.70;;
20976;SDS011;10647;51.016;3.720;2022-12-18T04:01:10;74.77;;;25.40;;
20976;SDS011;10647;51.016;3.720;2022-12-18T04:03:59;76.90;;;25.03;;
20976;SDS011;10647;51.016;3.720;2022-12-18T04:06:27;69.47;;;23.53;;
20976;SDS011;10647;51.016;3.720;2022-12-18T04:09:18;77.30;;;23.17;;
20976;SDS011;10647;51.016;3.720;2022-12-18T04:12:06;67.70;;;23.53;;
20976;SDS011;10647;51.016;3.720;2022-12-18T04:14:35;59.00;;;20.53;;
20976;SDS011;10647;51.016;3.720;2022-12-18T04:17:03;60.50;;;22.27;;
20976;SDS011;10647;51.016;3.720;2022-12-18T04:19:30;57.70;;;20.07;;
20976;SDS011;10647;51.016;3.720;2022-12-18T04:21:58;61.93;;;21.43;;
20976;SDS011;10647;51.016;3.720;2022-12-18T04:24:25;56.10;;;19.23;;
20976;SDS011;10647;51.016;3.720;2022-12-18T04:26:53;54.70;;;20.13;;
20976;SDS011;10647;51.016;3.720;2022-12-18T04:29:24;64.07;;;21.50;;
20976;SDS011;10647;51.016;3.720;2022-12-18T04:31:57;61.07;;;21.13;;
20976;SDS011;10647;51.016;3.720;2022-12-18T04:34:25;67.10;;;23.07;;
20976;SDS011;10647;51.016;3.720;2022-12-18T04:36:52;59.87;;;21.77;;
20976;SDS011;10647;51.016;3.720;2022-12-18T04:39:20;59.07;;;21.60;;
20976;SDS011;10647;51.016;3.720;2022-12-18T04:41:47;66.90;;;23.27;;
20976;SDS011;10647;51.016;3.720;2022-12-18T04:44:16;65.53;;;21.97;;
20976;SDS011;10647;51.016;3.720;2022-12-18T04:46:43;62.57;;;21.30;;
20976;SDS011;10647;51.016;3.720;2022-12-18T04:49:11;50.50;;;18.93;;
20976;SDS011;10647;51.016;3.720;2022-12-18T04:51:38;54.53;;;19.37;;
20976;SDS011;10647;51.016;3.720;2022-12-18T04:54:06;56.47;;;19.60;;
20976;SDS011;10647;51.016;3.720;2022-12-18T04:56:33;57.80;;;19.40;;
20976;SDS011;10647;51.016;3.720;2022-12-18T04:59:02;57.27;;;20.53;;
20976;SDS011;10647;51.016;3.720;2022-12-18T05:01:31;55.80;;;20.13;;
20976;SDS011;10647;51.016;3.720;2022-12-18T05:03:59;50.67;;;17.93;;
20976;SDS011;10647;51.016;3.720;2022-12-18T05:06:26;57.57;;;21.63;;
20976;SDS011;10647;51.016;3.720;2022-12-18T05:08:57;63.13;;;22.57;;
20976;SDS011;10647;51.016;3.720;2022-12-18T05:11:24;61.13;;;21.67;;
20976;SDS011;10647;51.016;3.720;2022-12-18T05:13:52;58.87;;;21.50;;
20976;SDS011;10647;51.016;3.720;2022-12-18T05:16:21;64.57;;;21.03;;
20976;SDS011;10647;51.016;3.720;2022-12-18T05:18:48;70.33;;;21.13;;
20976;SDS011;10647;51.016;3.720;2022-12-18T05:21:16;67.03;;;22.17;;
20976;SDS011;10647;51.016;3.720;2022-12-18T05:23:43;67.70;;;21.40;;
20976;SDS011;10647;51.016;3.720;2022-12-18T05:26:14;64.60;;;21.03;;
20976;SDS011;10647;51.016;3.720;2022-12-18T05:28:44;61.53;;;20.80;;
20976;SDS011;10647;51.016;3.720;2022-12-18T05:31:12;61.33;;;20.47;;
20976;SDS011;10647;51.016;3.720;2022-12-18T05:33:40;65.13;;;21.63;;
20976;SDS011;10647;51.016;3.720;2022-12-18T05:36:09;62.13;;;21.37;;
20976;SDS011;10647;51.016;3.720;2022-12-18T05:38:38;69.50;;;22.90;;
20976;SDS011;10647;51.016;3.720;2022-12-18T05:41:06;60.07;;;21.30;;
20976;SDS011;10647;51.016;3.720;2022-12-18T05:43:35;69.33;;;22.87;;
20976;SDS011;10647;51.016;3.720;2022-12-18T05:46:08;70.70;;;23.20;;
20976;SDS011;10647;51.016;3.720;2022-12-18T05:48:55;59.63;;;19.73;;
20976;SDS011;10647;51.016;3.720;2022-12-18T05:51:27;61.07;;;20.70;;
20976;SDS011;10647;51.016;3.720;2022-12-18T05:53:56;57.73;;;18.97;;
20976;SDS011;10647;51.016;3.720;2022-12-18T05:56:27;53.13;;;20.07;;
20976;SDS011;10647;51.016;3.720;2022-12-18T05:58:55;60.60;;;21.17;;
20976;SDS011;10647;51.016;3.720;2022-12-18T06:01:25;70.67;;;21.53;;
20976;SDS011;10647;51.016;3.720;2022-12-18T06:03:53;58.00;;;20.43;;
20976;SDS011;10647;51.016;3.720;2022-12-18T06:06:22;57.73;;;20.47;;
20976;SDS011;10647;51.016;3.720;2022-12-18T06:08:53;62.50;;;21.33;;
20976;SDS011;10647;51.016;3.720;2022-12-18T06:11:25;60.87;;;20.90;;
20976;SDS011;10647;51.016;3.720;2022-12-18T06:13:59;60.70;;;20.37;;
20976;SDS011;10647;51.016;3.720;2022-12-18T06:16:27;58.27;;;20.27;;
20976;SDS011;10647;51.016;3.720;2022-12-18T06:19:00;52.87;;;18.57;;
20976;SDS011;10647;51.016;3.720;2022-12-18T06:21:47;63.00;;;18.97;;
20976;SDS011;10647;51.016;3.720;2022-12-18T06:24:15;47.43;;;17.53;;
20976;SDS011;10647;51.016;3.720;2022-12-18T06:26:43;59.40;;;19.93;;
20976;SDS011;10647;51.016;3.720;2022-12-18T06:29:10;57.53;;;19.70;;
20976;SDS011;10647;51.016;3.720;2022-12-18T06:31:38;58.37;;;19.00;;
20976;SDS011;10647;51.016;3.720;2022-12-18T06:34:05;49.47;;;19.17;;
20976;SDS011;10647;51.016;3.720;2022-12-18T06:36:34;52.03;;;19.57;;
20976;SDS011;10647;51.016;3.720;2022-12-18T06:41:32;59.47;;;19.60;;
20976;SDS011;10647;51.016;3.720;2022-12-18T06:43:59;51.13;;;18.87;;
20976;SDS011;10647;51.016;3.720;2022-12-18T06:46:30;55.43;;;18.77;;
20976;SDS011;10647;51.016;3.720;2022-12-18T06:48:58;54.10;;;18.70;;
20976;SDS011;10647;51.016;3.720;2022-12-18T06:51:25;61.83;;;19.20;;
20976;SDS011;10647;51.016;3.720;2022-12-18T06:53:53;53.90;;;18.87;;
20976;SDS011;10647;51.016;3.720;2022-12-18T06:56:20;53.60;;;19.13;;
20976;SDS011;10647;51.016;3.720;2022-12-18T06:58:50;54.40;;;18.60;;
20976;SDS011;10647;51.016;3.720;2022-12-18T07:01:18;51.83;;;18.23;;
20976;SDS011;10647;51.016;3.720;2022-12-18T07:03:52;60.53;;;18.93;;
20976;SDS011;10647;51.016;3.720;2022-12-18T07:06:21;48.57;;;17.57;;
20976;SDS011;10647;51.016;3.720;2022-12-18T07:08:50;51.67;;;19.87;;
20976;SDS011;10647;51.016;3.720;2022-12-18T07:11:19;53.97;;;18.90;;
20976;SDS011;10647;51.016;3.720;2022-12-18T07:13:47;52.10;;;18.53;;
20976;SDS011;10647;51.016;3.720;2022-12-18T07:18:48;48.90;;;17.70;;
20976;SDS011;10647;51.016;3.720;2022-12-18T07:21:16;50.57;;;17.63;;
20976;SDS011;10647;51.016;3.720;2022-12-18T07:23:45;47.50;;;17.03;;
20976;SDS011;10647;51.016;3.720;2022-12-18T07:29:00;36.30;;;14.37;;
20976;SDS011;10647;51.016;3.720;2022-12-18T07:31:27;37.33;;;14.80;;
20976;SDS011;10647;51.016;3.720;2022-12-18T07:33:58;48.00;;;16.50;;
20976;SDS011;10647;51.016;3.720;2022-12-18T07:39:13;43.47;;;16.27;;
20976;SDS011;10647;51.016;3.720;2022-12-18T07:41:41;50.37;;;16.60;;
20976;SDS011;10647;51.016;3.720;2022-12-18T07:44:12;45.30;;;16.77;;
20976;SDS011;10647;51.016;3.720;2022-12-18T07:46:40;47.50;;;16.57;;
20976;SDS011;10647;51.016;3.720;2022-12-18T07:49:07;44.67;;;16.17;;
20976;SDS011;10647;51.016;3.720;2022-12-18T07:51:35;46.03;;;16.67;;
20976;SDS011;10647;51.016;3.720;2022-12-18T07:54:02;49.67;;;17.73;;
20976;SDS011;10647;51.016;3.720;2022-12-18T07:56:33;50.23;;;17.73;;
20976;SDS011;10647;51.016;3.720;2022-12-18T07:59:00;47.60;;;17.93;;
20976;SDS011;10647;51.016;3.720;2022-12-18T08:01:29;41.77;;;16.53;;
20976;SDS011;10647;51.016;3.720;2022-12-18T08:06:27;43.77;;;16.70;;
20976;SDS011;10647;51.016;3.720;2022-12-18T08:08:55;43.23;;;16.30;;
20976;SDS011;10647;51.016;3.720;2022-12-18T08:11:24;46.70;;;17.33;;
20976;SDS011;10647;51.016;3.720;2022-12-18T08:13:52;43.83;;;16.60;;
20976;SDS011;10647;51.016;3.720;2022-12-18T08:16:20;51.90;;;17.97;;
20976;SDS011;10647;51.016;3.720;2022-12-18T08:18:48;47.33;;;17.73;;
20976;SDS011;10647;51.016;3.720;2022-12-18T08:21:37;42.80;;;17.13;;
20976;SDS011;10647;51.016;3.720;2022-12-18T08:26:51;46.83;;;17.93;;
20976;SDS011;10647;51.016;3.720;2022-12-18T08:29:20;42.70;;;17.97;;
20976;SDS011;10647;51.016;3.720;2022-12-18T08:31:47;48.93;;;18.30;;
20976;SDS011;10647;51.016;3.720;2022-12-18T08:34:15;46.43;;;17.87;;
20976;SDS011;10647;51.016;3.720;2022-12-18T08:36:43;44.30;;;17.57;;
20976;SDS011;10647;51.016;3.720;2022-12-18T08:39:10;44.13;;;18.07;;
20976;SDS011;10647;51.016;3.720;2022-12-18T08:41:40;40.90;;;16.97;;
20976;SDS011;10647;51.016;3.720;2022-12-18T08:44:09;48.60;;;17.60;;
20976;SDS011;10647;51.016;3.720;2022-12-18T08:46:56;41.27;;;16.63;;
20976;SDS011;10647;51.016;3.720;2022-12-18T08:49:26;41.37;;;16.73;;
20976;SDS011;10647;51.016;3.720;2022-12-18T08:51:55;37.93;;;15.97;;
20976;SDS011;10647;51.016;3.720;2022-12-18T08:54:23;36.87;;;16.10;;
20976;SDS011;10647;51.016;3.720;2022-12-18T08:56:52;35.30;;;15.97;;
20976;SDS011;10647;51.016;3.720;2022-12-18T08:59:19;35.00;;;15.27;;
20976;SDS011;10647;51.016;3.720;2022-12-18T09:01:47;38.40;;;16.67;;
20976;SDS011;10647;51.016;3.720;2022-12-18T09:04:14;40.70;;;16.47;;
20976;SDS011;10647;51.016;3.720;2022-12-18T09:06:42;37.80;;;17.27;;
20976;SDS011;10647;51.016;3.720;2022-12-18T09:09:10;38.73;;;16.73;;
20976;SDS011;10647;51.016;3.720;2022-12-18T09:11:37;39.57;;;15.60;;
20976;SDS011;10647;51.016;3.720;2022-12-18T09:14:06;37.13;;;15.63;;
20976;SDS011;10647;51.016;3.720;2022-12-18T09:16:35;37.57;;;16.10;;
20976;SDS011;10647;51.016;3.720;2022-12-18T09:19:03;38.30;;;17.03;;
20976;SDS011;10647;51.016;3.720;2022-12-18T09:21:34;38.70;;;17.23;;
20976;SDS011;10647;51.016;3.720;2022-12-18T09:24:02;35.47;;;16.43;;
20976;SDS011;10647;51.016;3.720;2022-12-18T09:26:30;35.60;;;16.17;;
20976;SDS011;10647;51.016;3.720;2022-12-18T09:28:59;34.47;;;15.90;;
20976;SDS011;10647;51.016;3.720;2022-12-18T09:31:27;34.43;;;16.17;;
20976;SDS011;10647;51.016;3.720;2022-12-18T09:33:55;33.53;;;16.20;;
20976;SDS011;10647;51.016;3.720;2022-12-18T09:36:23;37.27;;;16.87;;
20976;SDS011;10647;51.016;3.720;2022-12-18T09:38:51;35.43;;;16.53;;
20976;SDS011;10647;51.016;3.720;2022-12-18T09:41:31;37.00;;;16.63;;
20976;SDS011;10647;51.016;3.720;2022-12-18T09:44:19;31.13;;;15.10;;
20976;SDS011;10647;51.016;3.720;2022-12-18T09:47:11;31.90;;;15.43;;
20976;SDS011;10647;51.016;3.720;2022-12-18T09:50:01;36.37;;;15.83;;
20976;SDS011;10647;51.016;3.720;2022-12-18T09:52:35;34.23;;;15.63;;
20976;SDS011;10647;51.016;3.720;2022-12-18T09:57:59;36.03;;;16.23;;
20976;SDS011;10647;51.016;3.720;2022-12-18T10:00:33;34.80;;;16.03;;
20976;SDS011;10647;51.016;3.720;2022-12-18T10:03:03;33.13;;;16.13;;
20976;SDS011;10647;51.016;3.720;2022-12-18T10:10:51;32.70;;;15.73;;
20976;SDS011;10647;51.016;3.720;2022-12-18T10:13:30;29.87;;;15.23;;
20976;SDS011;10647;51.016;3.720;2022-12-18T10:16:16;36.77;;;16.67;;
20976;SDS011;10647;51.016;3.720;2022-12-18T10:22:10;35.97;;;16.97;;
20976;SDS011;10647;51.016;3.720;2022-12-18T10:25:06;33.67;;;16.10;;
20976;SDS011;10647;51.016;3.720;2022-12-18T10:28:07;33.90;;;16.50;;
20976;SDS011;10647;51.016;3.720;2022-12-18T10:30:54;34.87;;;15.63;;
20976;SDS011;10647;51.016;3.720;2022-12-18T10:33:23;32.40;;;15.97;;
20976;SDS011;10647;51.016;3.720;2022-12-18T10:35:52;33.33;;;16.37;;
20976;SDS011;10647;51.016;3.720;2022-12-18T10:46:50;31.60;;;16.13;;
20976;SDS011;10647;51.016;3.720;2022-12-18T10:49:25;31.17;;;15.47;;
20976;SDS011;10647;51.016;3.720;2022-12-18T10:54:49;36.33;;;16.67;;
20976;SDS011;10647;51.016;3.720;2022-12-18T10:57:37;33.13;;;16.77;;
20976;SDS011;10647;51.016;3.720;2022-12-18T11:00:21;31.90;;;16.30;;
20976;SDS011;10647;51.016;3.720;2022-12-18T11:02:53;31.57;;;16.67;;
20976;SDS011;10647;51.016;3.720;2022-12-18T11:08:11;36.53;;;16.73;;
20976;SDS011;10647;51.016;3.720;2022-12-18T11:10:39;31.53;;;16.00;;
20976;SDS011;10647;51.016;3.720;2022-12-18T11:13:09;31.03;;;15.43;;
20976;SDS011;10647;51.016;3.720;2022-12-18T11:15:45;31.23;;;15.13;;
20976;SDS011;10647;51.016;3.720;2022-12-18T11:18:18;31.47;;;15.27;;
20976;SDS011;10647;51.016;3.720;2022-12-18T11:21:08;26.50;;;13.37;;
20976;SDS011;10647;51.016;3.720;2022-12-18T11:23:51;28.93;;;14.50;;
20976;SDS011;10647;51.016;3.720;2022-12-18T11:26:20;27.73;;;13.60;;
20976;SDS011;10647;51.016;3.720;2022-12-18T11:28:52;27.80;;;13.50;;
20976;SDS011;10647;51.016;3.720;2022-12-18T11:31:25;27.63;;;13.90;;
20976;SDS011;10647;51.016;3.720;2022-12-18T11:36:54;27.23;;;13.63;;
20976;SDS011;10647;51.016;3.720;2022-12-18T11:39:31;25.07;;;12.70;;
20976;SDS011;10647;51.016;3.720;2022-12-18T11:41:59;24.70;;;13.20;;
20976;SDS011;10647;51.016;3.720;2022-12-18T11:44:57;28.00;;;14.30;;
20976;SDS011;10647;51.016;3.720;2022-12-18T11:47:31;28.40;;;14.40;;
20976;SDS011;10647;51.016;3.720;2022-12-18T11:50:10;28.70;;;14.53;;
20976;SDS011;10647;51.016;3.720;2022-12-18T11:52:38;28.67;;;13.97;;
20976;SDS011;10647;51.016;3.720;2022-12-18T11:55:15;26.13;;;13.57;;
20976;SDS011;10647;51.016;3.720;2022-12-18T11:57:52;25.73;;;13.60;;
20976;SDS011;10647;51.016;3.720;2022-12-18T12:00:28;27.70;;;13.13;;
20976;SDS011;10647;51.016;3.720;2022-12-18T12:17:25;30.00;;;14.53;;
20976;SDS011;10647;51.016;3.720;2022-12-18T12:23:20;31.93;;;15.03;;
20976;SDS011;10647;51.016;3.720;2022-12-18T12:26:02;29.67;;;14.73;;
20976;SDS011;10647;51.016;3.720;2022-12-18T12:31:57;32.63;;;15.80;;
20976;SDS011;10647;51.016;3.720;2022-12-18T12:38:00;29.90;;;15.73;;
20976;SDS011;10647;51.016;3.720;2022-12-18T12:40:35;31.20;;;16.57;;
20976;SDS011;10647;51.016;3.720;2022-12-18T12:43:42;34.27;;;17.20;;
20976;SDS011;10647;51.016;3.720;2022-12-18T12:45:58;31.53;;;16.40;;
20976;SDS011;10647;51.016;3.720;2022-12-18T12:51:28;36.03;;;17.67;;
20976;SDS011;10647;51.016;3.720;2022-12-18T12:54:19;31.90;;;17.40;;
20976;SDS011;10647;51.016;3.720;2022-12-18T12:57:09;32.87;;;18.07;;
20976;SDS011;10647;51.016;3.720;2022-12-18T12:59:47;36.80;;;18.20;;
20976;SDS011;10647;51.016;3.720;2022-12-18T13:07:27;37.87;;;18.77;;
20976;SDS011;10647;51.016;3.720;2022-12-18T13:10:42;36.97;;;19.47;;
20976;SDS011;10647;51.016;3.720;2022-12-18T13:13:09;37.07;;;18.87;;
20976;SDS011;10647;51.016;3.720;2022-12-18T13:15:50;39.80;;;19.60;;
20976;SDS011;10647;51.016;3.720;2022-12-18T13:18:53;34.63;;;18.17;;
20976;SDS011;10647;51.016;3.720;2022-12-18T13:21:33;38.27;;;18.50;;
20976;SDS011;10647;51.016;3.720;2022-12-18T13:24:23;40.27;;;19.43;;
20976;SDS011;10647;51.016;3.720;2022-12-18T13:30:00;36.97;;;19.27;;
20976;SDS011;10647;51.016;3.720;2022-12-18T13:32:27;37.00;;;18.63;;
20976;SDS011;10647;51.016;3.720;2022-12-18T13:47:32;40.70;;;20.00;;
20976;SDS011;10647;51.016;3.720;2022-12-18T13:50:01;41.87;;;19.47;;
20976;SDS011;10647;51.016;3.720;2022-12-18T13:52:53;41.53;;;20.53;;
20976;SDS011;10647;51.016;3.720;2022-12-18T13:55:21;37.80;;;20.90;;
20976;SDS011;10647;51.016;3.720;2022-12-18T13:57:49;42.67;;;19.23;;
20976;SDS011;10647;51.016;3.720;2022-12-18T14:00:27;38.27;;;18.00;;
20976;SDS011;10647;51.016;3.720;2022-12-18T14:02:56;40.10;;;19.77;;
20976;SDS011;10647;51.016;3.720;2022-12-18T14:05:26;40.83;;;19.47;;
20976;SDS011;10647;51.016;3.720;2022-12-18T14:08:03;38.53;;;19.27;;
20976;SDS011;10647;51.016;3.720;2022-12-18T14:10:49;44.07;;;20.50;;
20976;SDS011;10647;51.016;3.720;2022-12-18T14:13:24;39.10;;;18.27;;
20976;SDS011;10647;51.016;3.720;2022-12-18T14:15:52;38.57;;;18.20;;
20976;SDS011;10647;51.016;3.720;2022-12-18T14:21:18;38.97;;;17.77;;
20976;SDS011;10647;51.016;3.720;2022-12-18T14:24:12;42.70;;;18.27;;
20976;SDS011;10647;51.016;3.720;2022-12-18T14:26:39;42.80;;;21.50;;
20976;SDS011;10647;51.016;3.720;2022-12-18T14:29:26;39.50;;;19.27;;
20976;SDS011;10647;51.016;3.720;2022-12-18T14:34:44;40.50;;;18.90;;
20976;SDS011;10647;51.016;3.720;2022-12-18T14:37:18;43.57;;;18.87;;
20976;SDS011;10647;51.016;3.720;2022-12-18T14:40:05;38.20;;;17.47;;
20976;SDS011;10647;51.016;3.720;2022-12-18T14:42:34;44.97;;;19.53;;
20976;SDS011;10647;51.016;3.720;2022-12-18T14:48:05;41.13;;;18.30;;
20976;SDS011;10647;51.016;3.720;2022-12-18T14:50:35;42.13;;;19.03;;
20976;SDS011;10647;51.016;3.720;2022-12-18T14:53:22;44.50;;;19.00;;
20976;SDS011;10647;51.016;3.720;2022-12-18T14:55:51;43.83;;;19.87;;
20976;SDS011;10647;51.016;3.720;2022-12-18T14:58:19;44.33;;;18.27;;
20976;SDS011;10647;51.016;3.720;2022-12-18T15:00:46;43.67;;;19.40;;
20976;SDS011;10647;51.016;3.720;2022-12-18T15:03:17;40.77;;;19.43;;
20976;SDS011;10647;51.016;3.720;2022-12-18T15:05:47;41.53;;;19.47;;
20976;SDS011;10647;51.016;3.720;2022-12-18T15:08:28;44.93;;;20.37;;
20976;SDS011;10647;51.016;3.720;2022-12-18T15:10:58;44.13;;;20.67;;
20976;SDS011;10647;51.016;3.720;2022-12-18T15:13:31;40.23;;;18.93;;
20976;SDS011;10647;51.016;3.720;2022-12-18T15:16:00;46.63;;;20.53;;
20976;SDS011;10647;51.016;3.720;2022-12-18T15:18:38;42.10;;;20.80;;
20976;SDS011;10647;51.016;3.720;2022-12-18T15:21:09;45.07;;;18.80;;
20976;SDS011;10647;51.016;3.720;2022-12-18T15:23:48;41.77;;;18.17;;
20976;SDS011;10647;51.016;3.720;2022-12-18T15:26:18;45.70;;;19.70;;
20976;SDS011;10647;51.016;3.720;2022-12-18T15:28:48;42.97;;;20.37;;
20976;SDS011;10647;51.016;3.720;2022-12-18T15:31:34;43.97;;;20.23;;
20976;SDS011;10647;51.016;3.720;2022-12-18T15:34:08;43.17;;;18.93;;
20976;SDS011;10647;51.016;3.720;2022-12-18T15:36:43;44.80;;;19.77;;
20976;SDS011;10647;51.016;3.720;2022-12-18T15:39:11;46.53;;;19.43;;
20976;SDS011;10647;51.016;3.720;2022-12-18T15:41:39;45.03;;;20.93;;
20976;SDS011;10647;51.016;3.720;2022-12-18T15:44:26;41.63;;;17.83;;
20976;SDS011;10647;51.016;3.720;2022-12-18T15:46:51;44.60;;;19.10;;
20976;SDS011;10647;51.016;3.720;2022-12-18T15:49:18;42.70;;;18.67;;
20976;SDS011;10647;51.016;3.720;2022-12-18T15:51:47;42.60;;;17.87;;
20976;SDS011;10647;51.016;3.720;2022-12-18T15:54:18;45.37;;;18.33;;
20976;SDS011;10647;51.016;3.720;2022-12-18T15:56:47;41.80;;;19.00;;
20976;SDS011;10647;51.016;3.720;2022-12-18T15:59:32;43.67;;;18.47;;
20976;SDS011;10647;51.016;3.720;2022-12-18T16:02:00;40.80;;;17.53;;
20976;SDS011;10647;51.016;3.720;2022-12-18T16:04:28;41.97;;;18.50;;
20976;SDS011;10647;51.016;3.720;2022-12-18T16:06:58;43.77;;;18.30;;
20976;SDS011;10647;51.016;3.720;2022-12-18T16:09:28;40.87;;;17.47;;
20976;SDS011;10647;51.016;3.720;2022-12-18T16:14:28;40.30;;;17.33;;
20976;SDS011;10647;51.016;3.720;2022-12-18T16:17:00;43.37;;;18.83;;
20976;SDS011;10647;51.016;3.720;2022-12-18T16:19:53;43.00;;;19.00;;
20976;SDS011;10647;51.016;3.720;2022-12-18T16:22:22;40.20;;;18.10;;
20976;SDS011;10647;51.016;3.720;2022-12-18T16:24:52;40.70;;;18.07;;
20976;SDS011;10647;51.016;3.720;2022-12-18T16:27:21;40.87;;;16.73;;
20976;SDS011;10647;51.016;3.720;2022-12-18T16:29:49;39.03;;;17.10;;
20976;SDS011;10647;51.016;3.720;2022-12-18T16:32:20;38.33;;;17.90;;
20976;SDS011;10647;51.016;3.720;2022-12-18T16:35:09;45.57;;;18.33;;
20976;SDS011;10647;51.016;3.720;2022-12-18T16:37:38;38.93;;;16.73;;
20976;SDS011;10647;51.016;3.720;2022-12-18T16:40:27;38.50;;;17.03;;
20976;SDS011;10647;51.016;3.720;2022-12-18T16:42:56;42.50;;;17.87;;
20976;SDS011;10647;51.016;3.720;2022-12-18T16:48:04;41.97;;;18.20;;
20976;SDS011;10647;51.016;3.720;2022-12-18T16:50:32;42.47;;;17.63;;
20976;SDS011;10647;51.016;3.720;2022-12-18T16:55:53;47.23;;;18.47;;
20976;SDS011;10647;51.016;3.720;2022-12-18T16:58:17;43.10;;;18.33;;
20976;SDS011;10647;51.016;3.720;2022-12-18T17:00:51;44.53;;;18.60;;
20976;SDS011;10647;51.016;3.720;2022-12-18T17:03:19;41.60;;;17.93;;
20976;SDS011;10647;51.016;3.720;2022-12-18T17:05:47;42.87;;;19.37;;
20976;SDS011;10647;51.016;3.720;2022-12-18T17:08:14;42.80;;;19.57;;
20976;SDS011;10647;51.016;3.720;2022-12-18T17:10:42;43.10;;;17.13;;
20976;SDS011;10647;51.016;3.720;2022-12-18T17:13:15;44.17;;;17.50;;
20976;SDS011;10647;51.016;3.720;2022-12-18T17:15:42;48.07;;;20.20;;
20976;SDS011;10647;51.016;3.720;2022-12-18T17:18:13;48.03;;;19.80;;